sensor_id;sensor_type;location;lat;lon;timestamp;temperature;humidity
62581;DHT22;48640;48.770;9.148;2023-03-01T00:01:18;1.30;82.80
62581;DHT22;48640;48.770;9.148;2023-03-01T00:03:45;1.30;82.70
62581;DHT22;48640;48.770;9.148;2023-03-01T00:06:13;1.20;82.60
62581;DHT22;48640;48.770;9.148;2023-03-01T00:08:39;1.20;82.90
62581;DHT22;48640;48.770;9.148;2023-03-01T00:11:09;1.20;83.10
62581;DHT22;48640;48.770;9.148;2023-03-01T00:13:36;1.20;83.20
62581;DHT22;48640;48.770;9.148;2023-03-01T00:16:06;1.20;82.70
62581;DHT22;48640;48.770;9.148;2023-03-01T00:18:33;1.10;82.80
62581;DHT22;48640;48.770;9.148;2023-03-01T00:21:00;1.10;82.90
62581;DHT22;48640;48.770;9.148;2023-03-01T00:23:27;1.00;83.30
62581;DHT22;48640;48.770;9.148;2023-03-01T00:25:54;1.00;83.80
62581;DHT22;48640;48.770;9.148;2023-03-01T00:28:21;1.00;83.80
62581;DHT22;48640;48.770;9.148;2023-03-01T00:30:48;0.90;83.90
62581;DHT22;48640;48.770;9.148;2023-03-01T00:33:17;0.90;84.20
62581;DHT22;48640;48.770;9.148;2023-03-01T00:35:43;1.00;84.40
62581;DHT22;48640;48.770;9.148;2023-03-01T00:38:10;1.00;84.20
62581;DHT22;48640;48.770;9.148;2023-03-01T00:40:37;0.90;84.20
62581;DHT22;48640;48.770;9.148;2023-03-01T00:43:04;0.90;84.20
62581;DHT22;48640;48.770;9.148;2023-03-01T00:45:32;0.90;84.30
62581;DHT22;48640;48.770;9.148;2023-03-01T00:47:59;0.90;84.30
62581;DHT22;48640;48.770;9.148;2023-03-01T00:50:27;0.90;84.50
62581;DHT22;48640;48.770;9.148;2023-03-01T00:52:55;0.90;84.20
62581;DHT22;48640;48.770;9.148;2023-03-01T00:55:22;1.00;84.10
62581;DHT22;48640;48.770;9.148;2023-03-01T00:57:49;0.90;84.00
62581;DHT22;48640;48.770;9.148;2023-03-01T01:00:17;0.90;84.50
62581;DHT22;48640;48.770;9.148;2023-03-01T01:02:44;0.90;84.60
62581;DHT22;48640;48.770;9.148;2023-03-01T01:05:11;0.90;84.70
62581;DHT22;48640;48.770;9.148;2023-03-01T01:07:39;0.90;84.90
62581;DHT22;48640;48.770;9.148;2023-03-01T01:10:07;0.90;84.90
62581;DHT22;48640;48.770;9.148;2023-03-01T01:12:34;0.90;85.20
62581;DHT22;48640;48.770;9.148;2023-03-01T01:15:00;1.00;85.00
62581;DHT22;48640;48.770;9.148;2023-03-01T01:17:27;1.00;84.90
62581;DHT22;48640;48.770;9.148;2023-03-01T01:19:54;1.00;85.00
62581;DHT22;48640;48.770;9.148;2023-03-01T01:22:21;1.00;84.90
62581;DHT22;48640;48.770;9.148;2023-03-01T01:24:49;1.10;84.80
62581;DHT22;48640;48.770;9.148;2023-03-01T01:27:15;1.10;84.40
62581;DHT22;48640;48.770;9.148;2023-03-01T01:29:42;0.90;84.20
62581;DHT22;48640;48.770;9.148;2023-03-01T01:32:09;1.00;84.70
62581;DHT22;48640;48.770;9.148;2023-03-01T01:34:36;1.00;84.60
62581;DHT22;48640;48.770;9.148;2023-03-01T01:37:03;0.90;84.30
62581;DHT22;48640;48.770;9.148;2023-03-01T01:39:33;0.80;84.80
62581;DHT22;48640;48.770;9.148;2023-03-01T01:42:01;0.80;85.00
62581;DHT22;48640;48.770;9.148;2023-03-01T01:44:29;0.70;86.00
62581;DHT22;48640;48.770;9.148;2023-03-01T01:46:58;0.50;85.40
62581;DHT22;48640;48.770;9.148;2023-03-01T01:49:28;0.40;86.00
62581;DHT22;48640;48.770;9.148;2023-03-01T01:52:00;0.40;86.70
62581;DHT22;48640;48.770;9.148;2023-03-01T01:54:34;0.40;86.70
62581;DHT22;48640;48.770;9.148;2023-03-01T01:57:09;0.50;87.20
62581;DHT22;48640;48.770;9.148;2023-03-01T01:59:38;0.60;87.00
62581;DHT22;48640;48.770;9.148;2023-03-01T02:02:05;0.80;86.30
62581;DHT22;48640;48.770;9.148;2023-03-01T02:04:33;0.90;86.10
62581;DHT22;48640;48.770;9.148;2023-03-01T02:07:02;0.90;85.70
62581;DHT22;48640;48.770;9.148;2023-03-01T02:09:30;0.90;85.50
62581;DHT22;48640;48.770;9.148;2023-03-01T02:11:58;1.00;85.10
62581;DHT22;48640;48.770;9.148;2023-03-01T02:14:27;0.90;85.10
62581;DHT22;48640;48.770;9.148;2023-03-01T02:16:53;0.90;85.30
62581;DHT22;48640;48.770;9.148;2023-03-01T02:19:31;1.10;85.50
62581;DHT22;48640;48.770;9.148;2023-03-01T02:22:07;1.30;84.90
62581;DHT22;48640;48.770;9.148;2023-03-01T02:24:40;1.20;84.20
62581;DHT22;48640;48.770;9.148;2023-03-01T02:27:10;1.30;84.30
62581;DHT22;48640;48.770;9.148;2023-03-01T02:29:39;1.30;84.20
62581;DHT22;48640;48.770;9.148;2023-03-01T02:32:11;1.20;84.40
62581;DHT22;48640;48.770;9.148;2023-03-01T02:34:38;1.20;84.50
62581;DHT22;48640;48.770;9.148;2023-03-01T02:37:10;1.30;84.40
62581;DHT22;48640;48.770;9.148;2023-03-01T02:39:40;1.40;83.80
62581;DHT22;48640;48.770;9.148;2023-03-01T02:42:09;1.30;83.70
62581;DHT22;48640;48.770;9.148;2023-03-01T02:44:39;1.30;83.80
62581;DHT22;48640;48.770;9.148;2023-03-01T02:47:06;1.10;83.70
62581;DHT22;48640;48.770;9.148;2023-03-01T02:49:34;1.10;84.70
62581;DHT22;48640;48.770;9.148;2023-03-01T02:52:11;1.30;84.40
62581;DHT22;48640;48.770;9.148;2023-03-01T02:54:42;1.40;84.20
62581;DHT22;48640;48.770;9.148;2023-03-01T02:57:11;1.40;84.00
62581;DHT22;48640;48.770;9.148;2023-03-01T02:59:40;1.40;83.70
62581;DHT22;48640;48.770;9.148;2023-03-01T03:02:16;1.30;83.70
62581;DHT22;48640;48.770;9.148;2023-03-01T03:04:45;1.40;83.80
62581;DHT22;48640;48.770;9.148;2023-03-01T03:07:12;1.40;83.80
62581;DHT22;48640;48.770;9.148;2023-03-01T03:09:39;1.40;83.50
62581;DHT22;48640;48.770;9.148;2023-03-01T03:12:06;1.30;83.80
62581;DHT22;48640;48.770;9.148;2023-03-01T03:14:33;1.20;84.20
62581;DHT22;48640;48.770;9.148;2023-03-01T03:17:01;1.20;84.40
62581;DHT22;48640;48.770;9.148;2023-03-01T03:19:31;1.30;84.40
62581;DHT22;48640;48.770;9.148;2023-03-01T03:21:58;1.40;84.10
62581;DHT22;48640;48.770;9.148;2023-03-01T03:24:25;1.40;83.70
62581;DHT22;48640;48.770;9.148;2023-03-01T03:26:52;1.40;84.00
62581;DHT22;48640;48.770;9.148;2023-03-01T03:29:19;1.50;83.80
62581;DHT22;48640;48.770;9.148;2023-03-01T03:31:46;1.30;83.90
62581;DHT22;48640;48.770;9.148;2023-03-01T03:34:14;1.30;84.40
62581;DHT22;48640;48.770;9.148;2023-03-01T03:36:43;1.40;84.40
62581;DHT22;48640;48.770;9.148;2023-03-01T03:39:10;1.40;84.00
62581;DHT22;48640;48.770;9.148;2023-03-01T03:41:36;1.20;84.30
62581;DHT22;48640;48.770;9.148;2023-03-01T03:44:03;1.20;84.90
62581;DHT22;48640;48.770;9.148;2023-03-01T03:46:30;1.10;85.50
62581;DHT22;48640;48.770;9.148;2023-03-01T03:48:57;1.20;85.60
62581;DHT22;48640;48.770;9.148;2023-03-01T03:51:26;1.10;85.60
62581;DHT22;48640;48.770;9.148;2023-03-01T03:53:52;1.10;85.60
62581;DHT22;48640;48.770;9.148;2023-03-01T03:56:19;0.90;86.10
62581;DHT22;48640;48.770;9.148;2023-03-01T03:58:46;1.00;86.50
62581;DHT22;48640;48.770;9.148;2023-03-01T04:01:13;1.20;86.60
62581;DHT22;48640;48.770;9.148;2023-03-01T04:03:39;1.40;85.70
62581;DHT22;48640;48.770;9.148;2023-03-01T04:06:07;1.50;85.00
62581;DHT22;48640;48.770;9.148;2023-03-01T04:08:35;1.50;84.80
62581;DHT22;48640;48.770;9.148;2023-03-01T04:11:03;1.40;84.70
62581;DHT22;48640;48.770;9.148;2023-03-01T04:13:44;1.40;84.80
62581;DHT22;48640;48.770;9.148;2023-03-01T04:16:11;1.50;84.70
62581;DHT22;48640;48.770;9.148;2023-03-01T04:18:38;1.40;84.80
62581;DHT22;48640;48.770;9.148;2023-03-01T04:21:05;1.30;84.90
62581;DHT22;48640;48.770;9.148;2023-03-01T04:23:31;1.20;85.40
62581;DHT22;48640;48.770;9.148;2023-03-01T04:25:59;1.40;85.30
62581;DHT22;48640;48.770;9.148;2023-03-01T04:28:28;1.40;85.10
62581;DHT22;48640;48.770;9.148;2023-03-01T04:30:57;1.40;84.90
62581;DHT22;48640;48.770;9.148;2023-03-01T04:33:25;1.50;85.00
62581;DHT22;48640;48.770;9.148;2023-03-01T04:35:52;1.70;84.60
62581;DHT22;48640;48.770;9.148;2023-03-01T04:38:20;1.70;84.30
62581;DHT22;48640;48.770;9.148;2023-03-01T04:40:47;1.70;84.30
62581;DHT22;48640;48.770;9.148;2023-03-01T04:43:15;1.60;84.60
62581;DHT22;48640;48.770;9.148;2023-03-01T04:45:43;1.60;84.80
62581;DHT22;48640;48.770;9.148;2023-03-01T04:48:10;1.60;85.10
62581;DHT22;48640;48.770;9.148;2023-03-01T04:50:37;1.80;84.40
62581;DHT22;48640;48.770;9.148;2023-03-01T04:53:04;1.90;84.10
62581;DHT22;48640;48.770;9.148;2023-03-01T04:55:30;1.90;83.70
62581;DHT22;48640;48.770;9.148;2023-03-01T04:57:57;1.80;83.90
62581;DHT22;48640;48.770;9.148;2023-03-01T05:00:26;1.90;83.60
62581;DHT22;48640;48.770;9.148;2023-03-01T05:02:54;1.80;83.30
62581;DHT22;48640;48.770;9.148;2023-03-01T05:05:25;1.80;83.80
62581;DHT22;48640;48.770;9.148;2023-03-01T05:07:52;1.90;84.00
62581;DHT22;48640;48.770;9.148;2023-03-01T05:10:20;2.00;83.60
62581;DHT22;48640;48.770;9.148;2023-03-01T05:12:46;2.10;83.20
62581;DHT22;48640;48.770;9.148;2023-03-01T05:15:13;2.00;83.00
62581;DHT22;48640;48.770;9.148;2023-03-01T05:17:41;2.00;83.20
62581;DHT22;48640;48.770;9.148;2023-03-01T05:20:09;2.00;83.30
62581;DHT22;48640;48.770;9.148;2023-03-01T05:22:36;2.00;83.50
62581;DHT22;48640;48.770;9.148;2023-03-01T05:25:04;2.00;83.70
62581;DHT22;48640;48.770;9.148;2023-03-01T05:27:32;2.00;83.10
62581;DHT22;48640;48.770;9.148;2023-03-01T05:29:58;2.00;83.10
62581;DHT22;48640;48.770;9.148;2023-03-01T05:32:41;2.00;83.20
62581;DHT22;48640;48.770;9.148;2023-03-01T05:35:08;2.10;83.60
62581;DHT22;48640;48.770;9.148;2023-03-01T05:37:39;2.10;83.20
62581;DHT22;48640;48.770;9.148;2023-03-01T05:40:06;2.00;83.10
62581;DHT22;48640;48.770;9.148;2023-03-01T05:42:43;2.00;83.50
62581;DHT22;48640;48.770;9.148;2023-03-01T05:45:11;2.10;83.40
62581;DHT22;48640;48.770;9.148;2023-03-01T05:47:40;2.10;82.90
62581;DHT22;48640;48.770;9.148;2023-03-01T05:50:13;2.10;83.10
62581;DHT22;48640;48.770;9.148;2023-03-01T05:52:40;2.10;82.90
62581;DHT22;48640;48.770;9.148;2023-03-01T05:55:07;2.00;83.40
62581;DHT22;48640;48.770;9.148;2023-03-01T05:57:34;2.00;83.40
62581;DHT22;48640;48.770;9.148;2023-03-01T06:00:01;2.10;83.40
62581;DHT22;48640;48.770;9.148;2023-03-01T06:02:28;2.10;83.30
62581;DHT22;48640;48.770;9.148;2023-03-01T06:04:57;2.10;83.40
62581;DHT22;48640;48.770;9.148;2023-03-01T06:07:23;1.90;83.30
62581;DHT22;48640;48.770;9.148;2023-03-01T06:09:50;2.00;83.40
62581;DHT22;48640;48.770;9.148;2023-03-01T06:12:17;1.90;83.60
62581;DHT22;48640;48.770;9.148;2023-03-01T06:14:45;2.00;83.40
62581;DHT22;48640;48.770;9.148;2023-03-01T06:17:13;2.00;83.40
62581;DHT22;48640;48.770;9.148;2023-03-01T06:19:40;2.00;84.00
62581;DHT22;48640;48.770;9.148;2023-03-01T06:22:08;2.20;83.80
62581;DHT22;48640;48.770;9.148;2023-03-01T06:24:34;2.20;83.10
62581;DHT22;48640;48.770;9.148;2023-03-01T06:27:01;2.20;82.80
62581;DHT22;48640;48.770;9.148;2023-03-01T06:29:28;2.30;82.90
62581;DHT22;48640;48.770;9.148;2023-03-01T06:31:55;2.20;83.10
62581;DHT22;48640;48.770;9.148;2023-03-01T06:34:22;2.20;83.00
62581;DHT22;48640;48.770;9.148;2023-03-01T06:36:48;2.20;83.40
62581;DHT22;48640;48.770;9.148;2023-03-01T06:39:16;2.10;83.70
62581;DHT22;48640;48.770;9.148;2023-03-01T06:41:43;2.10;83.50
62581;DHT22;48640;48.770;9.148;2023-03-01T06:44:10;2.20;83.60
62581;DHT22;48640;48.770;9.148;2023-03-01T06:46:38;2.20;83.70
62581;DHT22;48640;48.770;9.148;2023-03-01T06:49:05;2.20;83.60
62581;DHT22;48640;48.770;9.148;2023-03-01T06:51:35;2.20;83.70
62581;DHT22;48640;48.770;9.148;2023-03-01T06:54:02;2.20;83.30
62581;DHT22;48640;48.770;9.148;2023-03-01T06:56:30;2.10;83.40
62581;DHT22;48640;48.770;9.148;2023-03-01T06:58:57;2.20;83.80
62581;DHT22;48640;48.770;9.148;2023-03-01T07:01:24;1.90;83.60
62581;DHT22;48640;48.770;9.148;2023-03-01T07:03:51;1.80;84.50
62581;DHT22;48640;48.770;9.148;2023-03-01T07:06:17;1.80;85.30
62581;DHT22;48640;48.770;9.148;2023-03-01T07:08:44;1.90;85.50
62581;DHT22;48640;48.770;9.148;2023-03-01T07:11:11;2.10;85.20
62581;DHT22;48640;48.770;9.148;2023-03-01T07:13:40;2.30;84.20
62581;DHT22;48640;48.770;9.148;2023-03-01T07:16:07;2.50;83.00
62581;DHT22;48640;48.770;9.148;2023-03-01T07:18:34;2.60;82.10
62581;DHT22;48640;48.770;9.148;2023-03-01T07:21:04;2.50;81.90
62581;DHT22;48640;48.770;9.148;2023-03-01T07:23:31;2.20;82.50
62581;DHT22;48640;48.770;9.148;2023-03-01T07:25:58;2.10;83.30
62581;DHT22;48640;48.770;9.148;2023-03-01T07:28:26;2.10;83.50
62581;DHT22;48640;48.770;9.148;2023-03-01T07:30:54;2.10;83.60
62581;DHT22;48640;48.770;9.148;2023-03-01T07:33:21;2.30;83.30
62581;DHT22;48640;48.770;9.148;2023-03-01T07:35:48;2.00;83.40
62581;DHT22;48640;48.770;9.148;2023-03-01T07:38:15;1.90;83.80
62581;DHT22;48640;48.770;9.148;2023-03-01T07:40:41;1.60;84.50
62581;DHT22;48640;48.770;9.148;2023-03-01T07:43:08;1.50;85.60
62581;DHT22;48640;48.770;9.148;2023-03-01T07:45:35;1.40;85.70
62581;DHT22;48640;48.770;9.148;2023-03-01T07:48:04;1.40;86.00
62581;DHT22;48640;48.770;9.148;2023-03-01T07:50:30;1.50;86.10
62581;DHT22;48640;48.770;9.148;2023-03-01T07:52:57;1.40;85.40
62581;DHT22;48640;48.770;9.148;2023-03-01T07:55:24;1.50;86.00
62581;DHT22;48640;48.770;9.148;2023-03-01T07:57:51;1.40;85.80
62581;DHT22;48640;48.770;9.148;2023-03-01T08:00:18;1.50;86.20
62581;DHT22;48640;48.770;9.148;2023-03-01T08:02:45;1.60;85.80
62581;DHT22;48640;48.770;9.148;2023-03-01T08:05:13;1.50;85.20
62581;DHT22;48640;48.770;9.148;2023-03-01T08:07:40;1.50;85.40
62581;DHT22;48640;48.770;9.148;2023-03-01T08:10:08;1.50;85.60
62581;DHT22;48640;48.770;9.148;2023-03-01T08:12:35;1.50;85.90
62581;DHT22;48640;48.770;9.148;2023-03-01T08:15:02;1.70;85.90
62581;DHT22;48640;48.770;9.148;2023-03-01T08:17:28;1.70;84.70
62581;DHT22;48640;48.770;9.148;2023-03-01T08:19:55;1.80;85.00
62581;DHT22;48640;48.770;9.148;2023-03-01T08:22:23;1.80;84.60
62581;DHT22;48640;48.770;9.148;2023-03-01T08:24:50;1.90;84.70
62581;DHT22;48640;48.770;9.148;2023-03-01T08:27:17;2.00;83.50
62581;DHT22;48640;48.770;9.148;2023-03-01T08:29:44;2.00;83.10
62581;DHT22;48640;48.770;9.148;2023-03-01T08:32:11;1.80;83.40
62581;DHT22;48640;48.770;9.148;2023-03-01T08:34:38;1.80;84.40
62581;DHT22;48640;48.770;9.148;2023-03-01T08:37:04;1.70;83.90
62581;DHT22;48640;48.770;9.148;2023-03-01T08:39:33;1.70;84.40
62581;DHT22;48640;48.770;9.148;2023-03-01T08:41:59;1.90;84.30
62581;DHT22;48640;48.770;9.148;2023-03-01T08:44:26;2.10;84.40
62581;DHT22;48640;48.770;9.148;2023-03-01T08:46:53;2.20;83.50
62581;DHT22;48640;48.770;9.148;2023-03-01T08:49:21;2.40;82.90
62581;DHT22;48640;48.770;9.148;2023-03-01T08:51:49;2.50;82.80
62581;DHT22;48640;48.770;9.148;2023-03-01T08:54:17;2.50;81.20
62581;DHT22;48640;48.770;9.148;2023-03-01T08:56:46;2.20;81.80
62581;DHT22;48640;48.770;9.148;2023-03-01T08:59:15;2.20;82.40
62581;DHT22;48640;48.770;9.148;2023-03-01T09:01:42;2.20;82.60
62581;DHT22;48640;48.770;9.148;2023-03-01T09:04:09;2.20;82.50
62581;DHT22;48640;48.770;9.148;2023-03-01T09:06:36;2.30;82.60
62581;DHT22;48640;48.770;9.148;2023-03-01T09:09:04;2.40;82.00
62581;DHT22;48640;48.770;9.148;2023-03-01T09:11:31;2.40;82.10
62581;DHT22;48640;48.770;9.148;2023-03-01T09:14:00;2.20;81.60
62581;DHT22;48640;48.770;9.148;2023-03-01T09:16:27;2.50;82.30
62581;DHT22;48640;48.770;9.148;2023-03-01T09:18:55;2.80;81.80
62581;DHT22;48640;48.770;9.148;2023-03-01T09:21:23;2.90;80.70
62581;DHT22;48640;48.770;9.148;2023-03-01T09:23:50;2.70;80.30
62581;DHT22;48640;48.770;9.148;2023-03-01T09:26:19;2.80;81.40
62581;DHT22;48640;48.770;9.148;2023-03-01T09:28:48;3.00;80.40
62581;DHT22;48640;48.770;9.148;2023-03-01T09:31:18;2.90;79.70
62581;DHT22;48640;48.770;9.148;2023-03-01T09:33:45;2.70;79.50
62581;DHT22;48640;48.770;9.148;2023-03-01T09:36:14;2.60;80.20
62581;DHT22;48640;48.770;9.148;2023-03-01T09:38:41;2.80;81.20
62581;DHT22;48640;48.770;9.148;2023-03-01T09:41:11;3.10;80.60
62581;DHT22;48640;48.770;9.148;2023-03-01T09:43:48;3.30;79.50
62581;DHT22;48640;48.770;9.148;2023-03-01T09:46:22;3.20;78.80
62581;DHT22;48640;48.770;9.148;2023-03-01T09:48:52;3.20;78.10
62581;DHT22;48640;48.770;9.148;2023-03-01T09:51:26;3.10;78.30
62581;DHT22;48640;48.770;9.148;2023-03-01T09:53:53;3.20;78.50
62581;DHT22;48640;48.770;9.148;2023-03-01T09:56:27;3.30;77.70
62581;DHT22;48640;48.770;9.148;2023-03-01T09:58:58;3.40;77.80
62581;DHT22;48640;48.770;9.148;2023-03-01T10:01:31;3.40;77.30
62581;DHT22;48640;48.770;9.148;2023-03-01T10:04:09;3.60;76.80
62581;DHT22;48640;48.770;9.148;2023-03-01T10:06:38;3.70;76.50
62581;DHT22;48640;48.770;9.148;2023-03-01T10:09:10;3.80;76.30
62581;DHT22;48640;48.770;9.148;2023-03-01T10:11:42;3.70;75.10
62581;DHT22;48640;48.770;9.148;2023-03-01T10:14:18;3.90;75.50
62581;DHT22;48640;48.770;9.148;2023-03-01T10:16:54;4.10;75.40
62581;DHT22;48640;48.770;9.148;2023-03-01T10:19:29;4.40;74.30
62581;DHT22;48640;48.770;9.148;2023-03-01T10:22:00;4.60;72.30
62581;DHT22;48640;48.770;9.148;2023-03-01T10:24:33;4.80;72.30
62581;DHT22;48640;48.770;9.148;2023-03-01T10:27:05;5.60;70.00
62581;DHT22;48640;48.770;9.148;2023-03-01T10:29:39;5.80;66.60
62581;DHT22;48640;48.770;9.148;2023-03-01T10:32:12;5.80;65.60
62581;DHT22;48640;48.770;9.148;2023-03-01T10:34:39;6.40;65.80
62581;DHT22;48640;48.770;9.148;2023-03-01T10:37:11;6.70;63.10
62581;DHT22;48640;48.770;9.148;2023-03-01T10:39:55;6.40;62.30
62581;DHT22;48640;48.770;9.148;2023-03-01T10:42:26;7.20;62.80
62581;DHT22;48640;48.770;9.148;2023-03-01T10:44:54;8.60;59.50
62581;DHT22;48640;48.770;9.148;2023-03-01T10:47:24;8.40;55.60
62581;DHT22;48640;48.770;9.148;2023-03-01T10:49:53;7.20;57.20
62581;DHT22;48640;48.770;9.148;2023-03-01T10:52:21;6.70;59.30
62581;DHT22;48640;48.770;9.148;2023-03-01T10:54:54;7.30;59.70
62581;DHT22;48640;48.770;9.148;2023-03-01T10:57:29;8.50;57.90
62581;DHT22;48640;48.770;9.148;2023-03-01T11:00:20;9.50;55.30
62581;DHT22;48640;48.770;9.148;2023-03-01T11:02:50;10.00;52.10
62581;DHT22;48640;48.770;9.148;2023-03-01T11:05:21;10.00;51.70
62581;DHT22;48640;48.770;9.148;2023-03-01T11:07:52;9.90;52.30
62581;DHT22;48640;48.770;9.148;2023-03-01T11:10:22;9.40;53.00
62581;DHT22;48640;48.770;9.148;2023-03-01T11:12:51;7.70;54.00
62581;DHT22;48640;48.770;9.148;2023-03-01T11:15:24;7.30;56.10
62581;DHT22;48640;48.770;9.148;2023-03-01T11:17:53;7.60;57.40
62581;DHT22;48640;48.770;9.148;2023-03-01T11:20:25;8.10;55.60
62581;DHT22;48640;48.770;9.148;2023-03-01T11:22:54;7.90;55.80
62581;DHT22;48640;48.770;9.148;2023-03-01T11:25:25;7.70;56.10
62581;DHT22;48640;48.770;9.148;2023-03-01T11:27:53;8.00;57.60
62581;DHT22;48640;48.770;9.148;2023-03-01T11:30:22;7.40;56.10
62581;DHT22;48640;48.770;9.148;2023-03-01T11:33:04;7.30;56.90
62581;DHT22;48640;48.770;9.148;2023-03-01T11:35:32;7.10;57.60
62581;DHT22;48640;48.770;9.148;2023-03-01T11:38:12;8.10;57.30
62581;DHT22;48640;48.770;9.148;2023-03-01T11:40:46;8.50;55.20
62581;DHT22;48640;48.770;9.148;2023-03-01T11:43:20;9.20;54.50
62581;DHT22;48640;48.770;9.148;2023-03-01T11:46:01;9.70;53.00
62581;DHT22;48640;48.770;9.148;2023-03-01T11:48:44;10.30;50.30
62581;DHT22;48640;48.770;9.148;2023-03-01T11:51:20;9.00;52.10
62581;DHT22;48640;48.770;9.148;2023-03-01T11:53:56;8.80;52.90
62581;DHT22;48640;48.770;9.148;2023-03-01T11:56:29;8.20;54.00
62581;DHT22;48640;48.770;9.148;2023-03-01T11:59:19;8.80;54.40
62581;DHT22;48640;48.770;9.148;2023-03-01T12:01:59;9.50;54.00
62581;DHT22;48640;48.770;9.148;2023-03-01T12:05:00;10.00;51.40
62581;DHT22;48640;48.770;9.148;2023-03-01T12:07:35;11.50;49.10
62581;DHT22;48640;48.770;9.148;2023-03-01T12:10:19;12.10;47.00
62581;DHT22;48640;48.770;9.148;2023-03-01T12:13:05;11.40;47.60
62581;DHT22;48640;48.770;9.148;2023-03-01T12:15:39;11.90;46.80
62581;DHT22;48640;48.770;9.148;2023-03-01T12:21:18;9.50;49.20
62581;DHT22;48640;48.770;9.148;2023-03-01T12:27:03;9.20;51.00
62581;DHT22;48640;48.770;9.148;2023-03-01T12:29:39;9.20;52.20
62581;DHT22;48640;48.770;9.148;2023-03-01T12:32:28;9.50;52.20
62581;DHT22;48640;48.770;9.148;2023-03-01T12:35:33;10.40;50.70
62581;DHT22;48640;48.770;9.148;2023-03-01T12:38:15;9.60;50.60
62581;DHT22;48640;48.770;9.148;2023-03-01T12:41:11;8.90;51.30
62581;DHT22;48640;48.770;9.148;2023-03-01T12:43:51;8.80;52.50
62581;DHT22;48640;48.770;9.148;2023-03-01T12:46:35;8.40;53.40
62581;DHT22;48640;48.770;9.148;2023-03-01T12:49:09;8.40;53.80
62581;DHT22;48640;48.770;9.148;2023-03-01T12:51:38;8.20;53.80
62581;DHT22;48640;48.770;9.148;2023-03-01T12:54:14;8.40;54.40
62581;DHT22;48640;48.770;9.148;2023-03-01T12:56:41;8.40;54.00
62581;DHT22;48640;48.770;9.148;2023-03-01T12:59:14;8.40;54.40
62581;DHT22;48640;48.770;9.148;2023-03-01T13:01:49;8.70;54.40
62581;DHT22;48640;48.770;9.148;2023-03-01T13:04:23;9.30;53.50
62581;DHT22;48640;48.770;9.148;2023-03-01T13:07:03;9.10;52.30
62581;DHT22;48640;48.770;9.148;2023-03-01T13:09:38;9.40;53.20
62581;DHT22;48640;48.770;9.148;2023-03-01T13:12:42;9.10;53.30
62581;DHT22;48640;48.770;9.148;2023-03-01T13:15:28;8.90;53.00
62581;DHT22;48640;48.770;9.148;2023-03-01T13:17:57;8.70;53.60
62581;DHT22;48640;48.770;9.148;2023-03-01T13:20:27;8.60;53.70
62581;DHT22;48640;48.770;9.148;2023-03-01T13:23:13;8.80;54.10
62581;DHT22;48640;48.770;9.148;2023-03-01T13:26:10;8.80;53.40
62581;DHT22;48640;48.770;9.148;2023-03-01T13:28:40;8.90;53.40
62581;DHT22;48640;48.770;9.148;2023-03-01T13:31:08;8.60;53.60
62581;DHT22;48640;48.770;9.148;2023-03-01T13:33:43;8.70;54.20
62581;DHT22;48640;48.770;9.148;2023-03-01T13:36:11;9.10;54.90
62581;DHT22;48640;48.770;9.148;2023-03-01T13:39:00;9.30;53.20
62581;DHT22;48640;48.770;9.148;2023-03-01T13:41:50;9.40;53.30
62581;DHT22;48640;48.770;9.148;2023-03-01T13:44:23;9.60;53.00
62581;DHT22;48640;48.770;9.148;2023-03-01T13:46:53;9.90;52.70
62581;DHT22;48640;48.770;9.148;2023-03-01T13:49:22;9.90;51.90
62581;DHT22;48640;48.770;9.148;2023-03-01T13:51:50;10.20;51.30
62581;DHT22;48640;48.770;9.148;2023-03-01T13:54:25;10.10;50.60
62581;DHT22;48640;48.770;9.148;2023-03-01T13:56:55;10.10;51.10
62581;DHT22;48640;48.770;9.148;2023-03-01T13:59:22;9.50;51.60
62581;DHT22;48640;48.770;9.148;2023-03-01T14:01:56;9.50;52.60
62581;DHT22;48640;48.770;9.148;2023-03-01T14:04:24;9.30;52.80
62581;DHT22;48640;48.770;9.148;2023-03-01T14:07:09;8.70;53.10
62581;DHT22;48640;48.770;9.148;2023-03-01T14:09:37;8.80;54.50
62581;DHT22;48640;48.770;9.148;2023-03-01T14:12:26;8.90;54.30
62581;DHT22;48640;48.770;9.148;2023-03-01T14:14:59;9.10;53.60
62581;DHT22;48640;48.770;9.148;2023-03-01T14:17:49;9.20;53.50
62581;DHT22;48640;48.770;9.148;2023-03-01T14:20:21;8.90;53.70
62581;DHT22;48640;48.770;9.148;2023-03-01T14:22:50;8.70;54.30
62581;DHT22;48640;48.770;9.148;2023-03-01T14:25:24;8.60;54.70
62581;DHT22;48640;48.770;9.148;2023-03-01T14:27:55;8.30;55.20
62581;DHT22;48640;48.770;9.148;2023-03-01T14:30:24;8.40;55.70
62581;DHT22;48640;48.770;9.148;2023-03-01T14:32:53;8.40;55.60
62581;DHT22;48640;48.770;9.148;2023-03-01T14:35:22;8.50;55.80
62581;DHT22;48640;48.770;9.148;2023-03-01T14:37:49;8.70;56.40
62581;DHT22;48640;48.770;9.148;2023-03-01T14:40:25;8.90;55.80
62581;DHT22;48640;48.770;9.148;2023-03-01T14:42:56;8.80;55.10
62581;DHT22;48640;48.770;9.148;2023-03-01T14:45:25;8.60;55.50
62581;DHT22;48640;48.770;9.148;2023-03-01T14:47:53;8.60;55.80
62581;DHT22;48640;48.770;9.148;2023-03-01T14:50:26;8.40;55.60
62581;DHT22;48640;48.770;9.148;2023-03-01T14:52:55;8.30;56.10
62581;DHT22;48640;48.770;9.148;2023-03-01T14:55:26;8.30;56.40
62581;DHT22;48640;48.770;9.148;2023-03-01T14:57:57;8.40;56.50
62581;DHT22;48640;48.770;9.148;2023-03-01T15:00:26;8.20;56.30
62581;DHT22;48640;48.770;9.148;2023-03-01T15:02:55;8.10;56.80
62581;DHT22;48640;48.770;9.148;2023-03-01T15:05:25;8.10;57.10
62581;DHT22;48640;48.770;9.148;2023-03-01T15:07:54;8.20;57.10
62581;DHT22;48640;48.770;9.148;2023-03-01T15:10:23;8.10;56.80
62581;DHT22;48640;48.770;9.148;2023-03-01T15:12:52;8.20;57.10
62581;DHT22;48640;48.770;9.148;2023-03-01T15:15:36;8.20;57.20
62581;DHT22;48640;48.770;9.148;2023-03-01T15:18:13;7.90;56.80
62581;DHT22;48640;48.770;9.148;2023-03-01T15:20:41;7.90;57.50
62581;DHT22;48640;48.770;9.148;2023-03-01T15:23:21;7.80;57.60
62581;DHT22;48640;48.770;9.148;2023-03-01T15:25:48;7.70;58.00
62581;DHT22;48640;48.770;9.148;2023-03-01T15:28:22;7.70;58.10
62581;DHT22;48640;48.770;9.148;2023-03-01T15:30:55;7.80;58.20
62581;DHT22;48640;48.770;9.148;2023-03-01T15:33:34;7.80;58.10
62581;DHT22;48640;48.770;9.148;2023-03-01T15:36:02;7.80;57.90
62581;DHT22;48640;48.770;9.148;2023-03-01T15:38:35;7.90;57.80
62581;DHT22;48640;48.770;9.148;2023-03-01T15:41:05;7.90;57.80
62581;DHT22;48640;48.770;9.148;2023-03-01T15:43:47;7.80;57.90
62581;DHT22;48640;48.770;9.148;2023-03-01T15:46:22;7.90;58.10
62581;DHT22;48640;48.770;9.148;2023-03-01T15:48:52;7.80;58.10
62581;DHT22;48640;48.770;9.148;2023-03-01T15:51:27;7.80;58.10
62581;DHT22;48640;48.770;9.148;2023-03-01T15:53:57;7.60;58.20
62581;DHT22;48640;48.770;9.148;2023-03-01T15:56:24;7.80;58.40
62581;DHT22;48640;48.770;9.148;2023-03-01T15:58:51;7.80;58.20
62581;DHT22;48640;48.770;9.148;2023-03-01T16:01:19;7.70;58.00
62581;DHT22;48640;48.770;9.148;2023-03-01T16:03:46;7.60;57.70
62581;DHT22;48640;48.770;9.148;2023-03-01T16:06:13;7.50;58.10
62581;DHT22;48640;48.770;9.148;2023-03-01T16:08:40;7.50;58.40
62581;DHT22;48640;48.770;9.148;2023-03-01T16:11:14;7.50;58.00